createdAt,value
2022-11-10T00:01:09.908Z,94979.47
2022-11-10T00:03:39.071Z,94981.13
2022-11-10T00:06:08.202Z,94981.78
2022-11-10T00:08:35.643Z,94975.22
2022-11-10T00:11:07.262Z,94970.63
2022-11-10T00:13:56.600Z,94985.25
2022-11-10T00:16:42.569Z,94980.31
2022-11-10T00:19:09.525Z,94986.69
2022-11-10T00:21:37.302Z,94984.41
2022-11-10T00:24:05.125Z,94990.31
2022-11-10T00:26:32.025Z,94991.13
2022-11-10T00:28:58.941Z,94991.63
2022-11-10T00:31:28.630Z,94977.28
2022-11-10T00:33:56.189Z,94991.63
2022-11-10T00:36:23.247Z,94983.84
2022-11-10T00:38:53.217Z,94992.38
2022-11-10T00:41:20.272Z,94988.28
2022-11-10T00:43:47.098Z,94987.53
2022-11-10T00:46:14.735Z,94999.91
2022-11-10T00:48:41.495Z,94994.13
2022-11-10T00:51:17.840Z,95001.06
2022-11-10T00:53:44.567Z,95005.78
2022-11-10T00:56:11.309Z,94995.94
2022-11-10T00:58:40.119Z,95003.31
2022-11-10T01:01:07.500Z,95002.66
2022-11-10T01:03:35.138Z,94992.94
2022-11-10T01:06:16.793Z,95006.56
2022-11-10T01:08:43.919Z,95012.34
2022-11-10T01:11:16.335Z,95020.56
2022-11-10T01:13:44.561Z,95016.13
2022-11-10T01:16:22.303Z,95021.34
2022-11-10T01:18:55.078Z,95017.53
2022-11-10T01:21:22.967Z,95016.66
2022-11-10T01:23:50.352Z,95020.06
2022-11-10T01:26:18.213Z,95008.50
2022-11-10T01:28:45.708Z,95014.94
2022-11-10T01:31:19.266Z,95016.25
2022-11-10T01:33:46.309Z,95010.03
2022-11-10T01:36:14.311Z,95025.75
2022-11-10T01:38:43.284Z,95025.22
2022-11-10T01:41:16.536Z,94990.03
2022-11-10T01:43:43.830Z,94996.38
2022-11-10T01:46:13.541Z,94966.31
2022-11-10T01:48:53.316Z,95009.66
2022-11-10T01:51:43.313Z,95045.94
2022-11-10T01:54:20.547Z,95020.44
2022-11-10T01:57:02.863Z,95020.91
2022-11-10T01:59:36.323Z,95014.91
2022-11-10T02:02:16.259Z,95010.53
2022-11-10T02:04:43.880Z,95028.78
2022-11-10T02:07:12.276Z,95004.59
2022-11-10T02:09:41.907Z,95022.06
2022-11-10T02:12:09.038Z,95040.22
2022-11-10T02:14:37.044Z,95026.28
2022-11-10T02:17:04.144Z,95037.44
2022-11-10T02:19:31.214Z,95079.31
2022-11-10T02:21:58.130Z,95049.50
2022-11-10T02:24:25.207Z,95083.19
2022-11-10T02:26:55.185Z,95030.19
2022-11-10T02:29:24.385Z,95060.50
2022-11-10T02:31:51.281Z,95017.59
2022-11-10T02:34:18.419Z,95042.91
2022-11-10T02:36:45.322Z,95036.19
2022-11-10T02:39:12.333Z,95053.25
2022-11-10T02:41:39.351Z,95060.53
2022-11-10T02:44:07.456Z,95100.50
2022-11-10T02:46:34.518Z,95033.34
2022-11-10T02:49:01.531Z,95108.81
2022-11-10T02:51:28.560Z,95050.03
2022-11-10T02:53:55.481Z,95077.44
2022-11-10T02:56:22.533Z,95082.28
2022-11-10T02:58:49.535Z,95079.72
2022-11-10T03:01:16.533Z,95088.63
2022-11-10T03:03:43.498Z,95092.63
2022-11-10T03:06:25.567Z,95091.00
2022-11-10T03:08:52.639Z,95071.22
2022-11-10T03:11:19.733Z,95149.19
2022-11-10T03:14:00.756Z,95130.31
2022-11-10T03:16:28.170Z,95104.72
2022-11-10T03:18:55.074Z,95136.38
2022-11-10T03:21:22.028Z,95121.78
2022-11-10T03:23:48.860Z,95113.16
2022-11-10T03:26:18.995Z,95136.72
2022-11-10T03:28:45.896Z,95130.50
2022-11-10T03:31:12.740Z,95149.13
2022-11-10T03:33:39.771Z,95142.22
2022-11-10T03:36:08.893Z,95106.84
2022-11-10T03:38:36.004Z,95121.56
2022-11-10T03:41:20.291Z,95135.06
2022-11-10T03:43:48.540Z,95157.78
2022-11-10T03:46:16.969Z,95159.72
2022-11-10T03:48:47.370Z,95160.81
2022-11-10T03:51:17.879Z,95169.09
2022-11-10T03:53:44.880Z,95166.03
2022-11-10T03:56:12.776Z,95176.94
2022-11-10T03:58:39.775Z,95132.28
2022-11-10T04:01:06.844Z,95185.06
2022-11-10T04:03:33.909Z,95146.22
2022-11-10T04:06:19.949Z,95185.50
2022-11-10T04:09:16.138Z,95196.66
2022-11-10T04:12:05.353Z,95192.78
2022-11-10T04:14:51.446Z,95159.13
2022-11-10T04:17:18.372Z,95228.63
2022-11-10T04:19:45.315Z,95183.97
2022-11-10T04:22:32.186Z,95176.81
2022-11-10T04:25:01.534Z,95197.75
2022-11-10T04:27:28.617Z,95173.59
2022-11-10T04:29:55.589Z,95188.06
2022-11-10T04:32:22.729Z,95204.31
2022-11-10T04:34:50.050Z,95238.63
2022-11-10T04:37:17.523Z,95197.25
2022-11-10T04:39:44.647Z,95177.25
2022-11-10T04:42:11.634Z,95208.13
2022-11-10T04:44:38.846Z,95209.47
2022-11-10T04:47:10.645Z,95213.44
2022-11-10T04:49:38.812Z,95172.06
2022-11-10T04:52:05.877Z,95195.75
2022-11-10T04:54:32.812Z,95235.03
2022-11-10T04:56:59.834Z,95228.06
2022-11-10T04:59:26.713Z,95237.13
2022-11-10T05:01:53.544Z,95217.59
2022-11-10T05:04:20.478Z,95241.28
2022-11-10T05:06:47.408Z,95293.16
2022-11-10T05:09:14.454Z,95258.53
2022-11-10T05:11:41.468Z,95227.38
2022-11-10T05:14:08.419Z,95273.91
2022-11-10T05:16:35.402Z,95277.59
2022-11-10T05:19:02.375Z,95280.66
2022-11-10T05:21:32.410Z,95242.38
2022-11-10T05:24:02.093Z,95323.56
2022-11-10T05:26:28.961Z,95248.81
2022-11-10T05:28:55.856Z,95308.06
2022-11-10T05:31:22.784Z,95260.03
2022-11-10T05:33:49.701Z,95289.06
2022-11-10T05:36:16.649Z,95286.31
2022-11-10T05:38:44.026Z,95278.78
2022-11-10T05:41:11.862Z,95285.81
2022-11-10T05:43:38.891Z,95308.47
2022-11-10T05:46:06.000Z,95302.09
2022-11-10T05:48:32.825Z,95308.50
2022-11-10T05:51:00.031Z,95339.09
2022-11-10T05:53:27.108Z,95338.59
2022-11-10T05:55:53.982Z,95370.28
2022-11-10T05:58:21.485Z,95336.50
2022-11-10T06:00:48.650Z,95332.22
2022-11-10T06:03:18.868Z,95331.06
2022-11-10T06:05:46.465Z,95336.03
2022-11-10T06:08:17.449Z,95330.34
2022-11-10T06:10:44.853Z,95336.03
2022-11-10T06:13:11.954Z,95304.25
2022-11-10T06:15:39.020Z,95356.19
2022-11-10T06:18:06.576Z,95395.31
2022-11-10T06:20:34.017Z,95347.88
2022-11-10T06:23:11.014Z,95389.88
2022-11-10T06:25:40.021Z,95341.00
2022-11-10T06:28:08.657Z,95362.34
2022-11-10T06:30:37.916Z,95353.84
2022-11-10T06:33:05.131Z,95368.44
2022-11-10T06:35:32.887Z,95383.00
2022-11-10T06:38:06.977Z,95366.41
2022-11-10T06:40:34.432Z,95351.25
2022-11-10T06:43:02.237Z,95388.97
2022-11-10T06:45:30.011Z,95356.50
2022-11-10T06:48:03.645Z,95388.97
2022-11-10T06:50:31.378Z,95405.56
2022-11-10T06:53:00.104Z,95412.44
2022-11-10T06:55:27.809Z,95410.56
2022-11-10T06:57:54.649Z,95432.41
2022-11-10T07:00:22.491Z,95413.41
2022-11-10T07:03:02.715Z,95387.91
2022-11-10T07:05:31.667Z,95418.41
2022-11-10T07:08:05.931Z,95470.22
2022-11-10T07:10:34.662Z,95456.81
2022-11-10T07:13:03.813Z,95436.28
2022-11-10T07:15:31.696Z,95453.50
2022-11-10T07:17:58.766Z,95462.97
2022-11-10T07:20:26.583Z,95467.38
2022-11-10T07:23:05.689Z,95488.50
2022-11-10T07:25:37.682Z,95478.63
2022-11-10T07:28:08.417Z,95493.34
2022-11-10T07:30:36.965Z,95492.38
2022-11-10T07:33:10.624Z,95525.25
2022-11-10T07:35:37.831Z,95529.88
2022-11-10T07:38:13.220Z,95498.75
2022-11-10T07:40:40.375Z,95482.38
2022-11-10T07:43:07.579Z,95505.75
2022-11-10T07:45:34.491Z,95524.88
2022-11-10T07:48:05.273Z,95523.84
2022-11-10T07:50:36.786Z,95563.09
2022-11-10T07:53:12.982Z,95577.09
2022-11-10T07:55:43.874Z,95526.59
2022-11-10T07:58:14.108Z,95539.19
2022-11-10T08:00:42.570Z,95524.25
2022-11-10T08:03:16.073Z,95537.44
2022-11-10T08:05:43.733Z,95543.44
2022-11-10T08:08:11.332Z,95548.69
2022-11-10T08:10:40.197Z,95540.13
2022-11-10T08:13:11.150Z,95523.97
2022-11-10T08:15:40.298Z,95591.00
2022-11-10T08:18:21.102Z,95564.38
2022-11-10T08:20:49.017Z,95564.97
2022-11-10T08:23:19.422Z,95512.25
2022-11-10T08:25:48.435Z,95553.97
2022-11-10T08:28:18.236Z,95568.91
2022-11-10T08:30:52.787Z,95562.97
2022-11-10T08:33:21.932Z,95541.72
2022-11-10T08:35:52.266Z,95574.03
2022-11-10T08:38:22.559Z,95571.16
2022-11-10T08:40:50.805Z,95573.41
2022-11-10T08:43:19.059Z,95581.13
2022-11-10T08:45:46.862Z,95547.06
2022-11-10T08:48:20.082Z,95575.88
2022-11-10T08:50:49.783Z,95586.22
2022-11-10T08:53:22.184Z,95559.25
2022-11-10T08:55:50.501Z,95593.75
2022-11-10T08:58:21.825Z,95564.06
2022-11-10T09:00:49.372Z,95557.56
2022-11-10T09:03:25.148Z,95593.31
2022-11-10T09:05:58.026Z,95583.69
2022-11-10T09:08:27.607Z,95595.44
2022-11-10T09:10:54.868Z,95556.78
2022-11-10T09:13:27.666Z,95564.88
2022-11-10T09:16:03.074Z,95570.59
2022-11-10T09:18:30.855Z,95568.81
2022-11-10T09:20:57.822Z,95599.03
2022-11-10T09:23:25.624Z,95610.41
2022-11-10T09:25:55.730Z,95582.78
2022-11-10T09:28:24.217Z,95606.19
2022-11-10T09:30:53.353Z,95576.75
2022-11-10T09:33:21.102Z,95602.25
2022-11-10T09:35:48.586Z,95604.03
2022-11-10T09:38:17.207Z,95603.34
2022-11-10T09:41:05.305Z,95640.06
2022-11-10T09:44:34.524Z,95610.47
2022-11-10T09:47:12.166Z,95649.72
2022-11-10T09:49:50.539Z,95640.16
2022-11-10T09:52:19.179Z,95609.72
2022-11-10T09:54:55.091Z,95616.00
2022-11-10T09:57:26.128Z,95629.69
2022-11-10T09:59:54.321Z,95668.34
2022-11-10T10:02:46.356Z,95621.28
2022-11-10T10:05:54.046Z,95665.25
2022-11-10T10:09:02.689Z,95673.47
2022-11-10T10:12:23.502Z,95683.34
2022-11-10T10:15:03.285Z,95688.50
2022-11-10T10:17:41.342Z,95677.22
2022-11-10T10:21:10.336Z,95653.91
2022-11-10T10:24:08.956Z,95619.66
2022-11-10T10:26:53.520Z,95641.81
2022-11-10T10:29:36.046Z,95640.13
2022-11-10T10:32:19.250Z,95623.66
2022-11-10T10:34:50.064Z,95618.09
2022-11-10T10:37:31.722Z,95622.66
2022-11-10T10:40:04.338Z,95627.19
2022-11-10T10:42:59.020Z,95656.25
2022-11-10T10:45:48.251Z,95689.19
2022-11-10T10:48:33.509Z,95661.53
2022-11-10T10:51:29.007Z,95656.97
2022-11-10T10:54:00.610Z,95629.84
2022-11-10T10:56:40.704Z,95628.84
2022-11-10T10:59:31.065Z,95625.88
2022-11-10T11:02:20.720Z,95671.59
2022-11-10T11:11:33.863Z,95686.50
2022-11-10T11:14:58.718Z,95655.09
2022-11-10T11:17:40.771Z,95640.88
2022-11-10T11:24:03.953Z,95682.38
2022-11-10T11:29:35.635Z,95670.31
2022-11-10T11:32:17.439Z,95658.72
2022-11-10T11:35:58.627Z,95671.47
2022-11-10T11:38:40.204Z,95670.66
2022-11-10T11:41:54.172Z,95679.56
2022-11-10T11:44:50.929Z,95681.38
2022-11-10T11:47:43.082Z,95678.88
2022-11-10T11:50:37.440Z,95676.41
2022-11-10T11:53:31.141Z,95674.44
2022-11-10T11:56:22.225Z,95682.69
2022-11-10T11:59:35.750Z,95683.84
2022-11-10T12:02:30.352Z,95687.44
2022-11-10T12:05:27.648Z,95676.78
2022-11-10T12:08:18.537Z,95679.06
2022-11-10T12:11:04.024Z,95686.97
2022-11-10T12:13:55.672Z,95677.94
2022-11-10T12:16:28.846Z,95661.63
2022-11-10T12:19:39.289Z,95664.22
2022-11-10T12:22:13.149Z,95671.66
2022-11-10T12:25:13.132Z,95670.88
2022-11-10T12:27:48.133Z,95666.44
2022-11-10T12:30:17.575Z,95671.53
2022-11-10T12:32:52.720Z,95660.75
2022-11-10T12:35:33.136Z,95653.38
2022-11-10T12:38:17.142Z,95672.56
2022-11-10T12:40:49.593Z,95665.28
2022-11-10T12:44:07.752Z,95663.13
2022-11-10T12:46:34.767Z,95651.94
2022-11-10T12:49:21.812Z,95636.38
2022-11-10T12:52:03.101Z,95639.00
2022-11-10T12:54:30.077Z,95655.38
2022-11-10T12:57:22.004Z,95620.53
2022-11-10T13:00:05.909Z,95642.47
2022-11-10T13:02:33.958Z,95658.16
2022-11-10T13:05:27.189Z,95636.94
2022-11-10T13:08:33.036Z,95653.13
2022-11-10T13:11:22.717Z,95646.50
2022-11-10T13:14:00.029Z,95636.13
2022-11-10T13:16:39.307Z,95660.38
2022-11-10T13:19:11.537Z,95645.81
2022-11-10T13:21:53.400Z,95658.09
2022-11-10T13:24:26.832Z,95650.47
2022-11-10T13:26:59.005Z,95650.13
2022-11-10T13:29:35.919Z,95646.28
2022-11-10T13:32:36.080Z,95638.16
2022-11-10T13:35:30.379Z,95656.75
2022-11-10T13:37:57.913Z,95647.94
2022-11-10T13:40:24.597Z,95653.91
2022-11-10T13:42:57.335Z,95652.66
2022-11-10T13:45:43.400Z,95654.59
2022-11-10T13:48:12.857Z,95653.44
2022-11-10T13:51:01.312Z,95651.84
2022-11-10T13:54:00.963Z,95658.53
2022-11-10T13:56:46.937Z,95663.59
2022-11-10T13:59:44.496Z,95673.81
2022-11-10T14:02:42.245Z,95680.34
2022-11-10T14:05:28.911Z,95673.97
2022-11-10T14:08:14.904Z,95672.34
2022-11-10T14:11:00.279Z,95666.47
2022-11-10T14:13:40.656Z,95667.22
2022-11-10T14:16:21.648Z,95674.81
2022-11-10T14:19:24.807Z,95689.75
2022-11-10T14:21:58.241Z,95674.91
2022-11-10T14:24:38.504Z,95674.91
2022-11-10T14:27:16.142Z,95691.38
2022-11-10T14:29:43.167Z,95677.50
2022-11-10T14:32:17.774Z,95696.78
2022-11-10T14:34:49.257Z,95687.94
2022-11-10T14:37:23.250Z,95689.94
2022-11-10T14:39:56.156Z,95688.47
2022-11-10T14:42:26.440Z,95687.50
2022-11-10T14:45:27.235Z,95702.31
2022-11-10T14:47:56.072Z,95700.31
2022-11-10T14:50:25.229Z,95697.47
2022-11-10T14:53:01.695Z,95709.63
2022-11-10T14:55:31.915Z,95698.47
2022-11-10T14:58:10.504Z,95714.97
2022-11-10T15:00:41.166Z,95711.22
2022-11-10T15:03:14.836Z,95710.97
2022-11-10T15:05:42.617Z,95712.00
2022-11-10T15:08:10.502Z,95707.72
2022-11-10T15:10:47.278Z,95717.13
2022-11-10T15:13:13.912Z,95712.31
2022-11-10T15:15:41.765Z,95707.34
2022-11-10T15:18:29.381Z,95711.44
2022-11-10T15:21:06.361Z,95714.72
2022-11-10T15:23:41.456Z,95718.63
2022-11-10T15:26:29.330Z,95717.88
2022-11-10T15:28:56.158Z,95713.75
2022-11-10T15:31:29.436Z,95730.50
2022-11-10T15:34:03.499Z,95732.69
2022-11-10T15:36:39.613Z,95730.47
2022-11-10T15:39:23.478Z,95732.81
2022-11-10T15:41:57.580Z,95742.47
2022-11-10T15:44:30.578Z,95750.38
2022-11-10T15:46:58.344Z,95744.81
2022-11-10T15:49:32.704Z,95746.00
2022-11-10T15:52:06.684Z,95750.91
2022-11-10T15:54:36.149Z,95747.75
2022-11-10T15:57:02.877Z,95757.06
2022-11-10T15:59:29.872Z,95764.28
2022-11-10T16:01:56.817Z,95762.94
2022-11-10T16:04:27.111Z,95771.25
2022-11-10T16:06:53.969Z,95772.81
2022-11-10T16:09:20.783Z,95764.47
2022-11-10T16:11:47.537Z,95764.31
2022-11-10T16:14:17.083Z,95776.78
2022-11-10T16:16:44.585Z,95790.06
2022-11-10T16:19:12.548Z,95783.66
2022-11-10T16:21:39.304Z,95784.72
2022-11-10T16:24:06.350Z,95790.00
2022-11-10T16:26:34.808Z,95793.31
2022-11-10T16:29:01.927Z,95799.34
2022-11-10T16:31:29.373Z,95786.47
2022-11-10T16:33:56.068Z,95798.63
2022-11-10T16:36:26.417Z,95799.66
2022-11-10T16:38:54.563Z,95790.84
2022-11-10T16:41:21.898Z,95794.84
2022-11-10T16:43:48.660Z,95796.38
2022-11-10T16:46:27.202Z,95806.69
2022-11-10T16:48:59.063Z,95799.34
2022-11-10T16:51:41.830Z,95814.59
2022-11-10T16:54:14.070Z,95823.03
2022-11-10T16:56:40.867Z,95821.53
2022-11-10T16:59:07.816Z,95819.06
2022-11-10T17:01:36.936Z,95825.28
2022-11-10T17:04:11.855Z,95832.06
2022-11-10T17:06:38.765Z,95835.56
2022-11-10T17:09:28.221Z,95841.75
2022-11-10T17:11:54.934Z,95857.25
2022-11-10T17:14:21.810Z,95856.78
2022-11-10T17:16:48.660Z,95846.19
2022-11-10T17:19:20.692Z,95853.34
2022-11-10T17:21:49.673Z,95859.66
2022-11-10T17:24:17.503Z,95857.53
2022-11-10T17:26:45.026Z,95869.41
2022-11-10T17:29:21.308Z,95870.97
2022-11-10T17:31:50.431Z,95879.50
2022-11-10T17:34:17.240Z,95884.50
2022-11-10T17:36:44.007Z,95884.16
2022-11-10T17:39:14.773Z,95887.22
2022-11-10T17:41:41.561Z,95884.81
2022-11-10T17:44:16.363Z,95896.00
2022-11-10T17:46:43.334Z,95898.47
2022-11-10T17:49:10.132Z,95885.97
2022-11-10T17:51:37.405Z,95896.88
2022-11-10T17:54:05.544Z,95886.44
2022-11-10T17:56:32.995Z,95886.28
2022-11-10T17:59:00.082Z,95879.84
2022-11-10T18:01:26.855Z,95883.50
2022-11-10T18:03:53.764Z,95873.47
2022-11-10T18:06:21.457Z,95883.22
2022-11-10T18:08:48.432Z,95898.38
2022-11-10T18:11:18.073Z,95897.38
2022-11-10T18:13:45.411Z,95906.31
2022-11-10T18:16:14.262Z,95918.75
2022-11-10T18:18:41.489Z,95923.34
2022-11-10T18:21:08.649Z,95923.56
2022-11-10T18:23:35.777Z,95883.28
2022-11-10T18:26:09.100Z,95909.38
2022-11-10T18:28:36.248Z,95916.16
2022-11-10T18:31:13.079Z,95913.88
2022-11-10T18:33:42.619Z,95900.53
2022-11-10T18:36:09.684Z,95894.63
2022-11-10T18:38:36.468Z,95903.72
2022-11-10T18:41:24.011Z,95914.66
2022-11-10T18:43:51.216Z,95911.63
2022-11-10T18:46:17.924Z,95917.06
2022-11-10T18:48:47.892Z,95901.31
2022-11-10T18:51:16.335Z,95930.72
2022-11-10T18:53:43.068Z,95930.22
2022-11-10T18:56:09.804Z,95921.13
2022-11-10T18:58:36.631Z,95917.50
2022-11-10T19:01:06.820Z,95929.50
2022-11-10T19:03:35.315Z,95932.81
2022-11-10T19:06:02.055Z,95941.56
2022-11-10T19:08:29.719Z,95936.16
2022-11-10T19:10:57.272Z,95939.19
2022-11-10T19:13:25.665Z,95938.66
2022-11-10T19:15:53.247Z,95926.53
2022-11-10T19:18:19.957Z,95940.38
2022-11-10T19:20:46.650Z,95942.16
2022-11-10T19:23:13.369Z,95929.63
2022-11-10T19:25:40.087Z,95936.13
2022-11-10T19:28:11.246Z,95928.81
2022-11-10T19:30:39.396Z,95931.22
2022-11-10T19:33:06.206Z,95937.47
2022-11-10T19:35:33.299Z,95941.94
2022-11-10T19:38:01.103Z,95947.06
2022-11-10T19:40:27.967Z,95953.25
2022-11-10T19:42:54.733Z,95947.69
2022-11-10T19:45:21.551Z,95959.97
2022-11-10T19:47:48.442Z,95962.25
2022-11-10T19:50:15.659Z,95955.34
2022-11-10T19:52:42.365Z,95942.63
2022-11-10T19:55:09.093Z,95945.50
2022-11-10T19:57:35.874Z,95933.91
2022-11-10T20:00:05.048Z,95947.19
2022-11-10T20:02:31.753Z,95953.63
2022-11-10T20:05:13.769Z,95958.91
2022-11-10T20:08:08.779Z,95953.44
2022-11-10T20:10:38.604Z,95969.38
2022-11-10T20:13:06.207Z,95966.97
2022-11-10T20:15:34.300Z,95969.38
2022-11-10T20:18:02.018Z,95951.19
2022-11-10T20:20:32.484Z,95964.63
2022-11-10T20:23:03.904Z,95957.41
2022-11-10T20:25:31.477Z,95955.44
2022-11-10T20:28:01.374Z,95972.44
2022-11-10T20:30:28.185Z,95972.44
2022-11-10T20:32:54.990Z,95951.34
2022-11-10T20:35:21.730Z,95958.63
2022-11-10T20:37:48.566Z,95964.59
2022-11-10T20:40:42.397Z,95965.31
2022-11-10T20:43:02.144Z,95970.44
2022-11-10T20:45:29.044Z,95965.97
2022-11-10T20:47:55.818Z,95961.59
2022-11-10T20:50:24.673Z,95978.59
2022-11-10T20:52:51.583Z,95978.59
2022-11-10T20:55:22.089Z,95969.78
2022-11-10T20:57:57.608Z,95972.28
2022-11-10T21:00:24.336Z,95971.47
2022-11-10T21:02:51.037Z,95984.63
2022-11-10T21:05:17.788Z,95976.91
2022-11-10T21:07:44.525Z,95973.56
2022-11-10T21:10:11.244Z,95976.00
2022-11-10T21:12:49.797Z,95990.22
2022-11-10T21:15:19.259Z,95996.81
2022-11-10T21:17:46.319Z,95990.13
2022-11-10T21:20:13.930Z,96004.53
2022-11-10T21:22:41.000Z,96005.06
2022-11-10T21:25:08.717Z,96017.47
2022-11-10T21:27:35.521Z,96013.22
2022-11-10T21:30:02.461Z,96005.78
2022-11-10T21:32:29.179Z,96001.56
2022-11-10T21:34:55.875Z,96002.13
2022-11-10T21:37:23.744Z,95999.63
2022-11-10T21:39:50.470Z,95999.25
2022-11-10T21:42:20.848Z,95987.56
2022-11-10T21:44:47.646Z,95995.91
2022-11-10T21:47:14.497Z,95985.88
2022-11-10T21:49:41.249Z,95984.00
2022-11-10T21:52:08.065Z,95984.59
2022-11-10T21:54:34.836Z,95982.00
2022-11-10T21:57:01.612Z,95981.25
2022-11-10T21:59:28.335Z,95973.03
2022-11-10T22:01:55.061Z,95983.19
2022-11-10T22:04:21.803Z,95970.78
2022-11-10T22:07:06.932Z,95977.69
2022-11-10T22:09:52.233Z,95972.00
2022-11-10T22:12:37.463Z,95974.09
2022-11-10T22:15:24.382Z,95983.59
2022-11-10T22:18:09.780Z,95972.81
2022-11-10T22:20:36.639Z,95984.41
2022-11-10T22:23:03.358Z,95984.84
2022-11-10T22:25:30.083Z,95972.72
2022-11-10T22:27:57.429Z,95971.81
2022-11-10T22:30:24.160Z,95968.47
2022-11-10T22:32:50.889Z,95964.19
2022-11-10T22:35:35.916Z,95969.94
2022-11-10T22:38:06.406Z,95964.38
2022-11-10T22:40:52.603Z,95979.03
2022-11-10T22:43:38.233Z,95972.09
2022-11-10T22:46:05.053Z,95970.47
2022-11-10T22:48:33.011Z,95968.97
2022-11-10T22:51:00.520Z,95973.94
2022-11-10T22:53:27.601Z,95977.28
2022-11-10T22:55:59.567Z,95963.97
2022-11-10T22:58:26.385Z,95969.81
2022-11-10T23:00:53.121Z,95968.31
2022-11-10T23:03:19.944Z,95966.91
2022-11-10T23:05:55.890Z,95968.09
2022-11-10T23:08:23.316Z,95953.03
2022-11-10T23:11:00.116Z,95976.56
2022-11-10T23:13:27.424Z,95976.03
2022-11-10T23:15:56.824Z,95970.53
2022-11-10T23:18:23.693Z,95970.78
2022-11-10T23:21:03.341Z,95975.16
2022-11-10T23:23:34.175Z,95972.97
2022-11-10T23:26:05.221Z,95974.97
2022-11-10T23:28:33.581Z,95983.16
2022-11-10T23:31:10.316Z,95988.00
2022-11-10T23:33:39.692Z,95972.28
2022-11-10T23:36:08.185Z,95969.63
2022-11-10T23:38:37.300Z,95976.56
2022-11-10T23:41:07.047Z,95977.47
2022-11-10T23:43:34.411Z,95984.56
2022-11-10T23:46:07.023Z,95979.72
2022-11-10T23:48:35.270Z,95985.84
2022-11-10T23:51:02.291Z,95971.59
2022-11-10T23:53:29.108Z,95958.72
2022-11-10T23:56:04.584Z,95968.69
2022-11-10T23:58:32.622Z,95965.19
